Time;durP1;ratioP1;P1;durP2;ratioP2;P2;SDS_P1;SDS_P2;PMS_P1;PMS_P2;Temp;Humidity;BMP_temperature;BMP_pressure;BME280_temperature;BME280_humidity;BME280_pressure;Samples;Min_cycle;Max_cycle;Signal;HPM_P1;HPM_P2
2022/06/13 00:00:37;;;;;;;0.90;0.90;;;15.30;99.90;;;;;;4963502;28;20502;-85
2022/06/13 00:03:04;;;;;;;0.73;0.73;;;15.30;99.90;;;;;;4963508;28;21002;-82
2022/06/13 00:05:31;;;;;;;2.13;0.87;;;15.30;99.90;;;;;;4965478;28;20966;-86
2022/06/13 00:08:00;;;;;;;0.67;0.60;;;15.30;99.90;;;;;;4963062;28;21003;-85
2022/06/13 00:10:27;;;;;;;1.03;0.60;;;15.20;99.90;;;;;;4964902;28;20457;-84
2022/06/13 00:12:54;;;;;;;2.50;0.60;;;15.30;99.90;;;;;;4961819;28;20833;-83
2022/06/13 00:15:21;;;;;;;0.90;0.80;;;15.30;99.90;;;;;;4963126;28;20470;-84
2022/06/13 00:17:48;;;;;;;1.13;0.50;;;15.20;99.90;;;;;;4962729;28;20464;-85
2022/06/13 00:20:15;;;;;;;0.60;0.60;;;15.10;99.90;;;;;;4963072;28;20487;-86
2022/06/13 00:22:42;;;;;;;1.20;0.60;;;15.00;99.90;;;;;;4965057;28;20464;-84
2022/06/13 00:25:11;;;;;;;1.30;0.60;;;15.10;99.90;;;;;;4962028;28;21053;-84
2022/06/13 00:27:38;;;;;;;1.53;1.10;;;15.10;99.90;;;;;;4966051;28;20459;-84
2022/06/13 00:30:07;;;;;;;0.70;0.70;;;15.10;99.90;;;;;;4964428;28;20481;-84
2022/06/13 00:32:34;;;;;;;0.60;0.53;;;15.00;99.90;;;;;;4962922;28;20543;-84
2022/06/13 00:35:02;;;;;;;0.90;0.60;;;15.00;99.90;;;;;;4962927;28;20553;-83
2022/06/13 00:37:30;;;;;;;0.70;0.70;;;15.20;99.90;;;;;;4964942;28;20539;-83
2022/06/13 00:39:57;;;;;;;1.63;0.90;;;15.30;99.90;;;;;;4964751;28;20553;-86
2022/06/13 00:42:27;;;;;;;0.93;0.67;;;15.40;99.90;;;;;;4961026;28;20532;-85
2022/06/13 00:45:09;;;;;;;0.70;0.70;;;15.50;99.90;;;;;;4963563;28;20852;-83
2022/06/13 00:47:38;;;;;;;0.60;0.60;;;15.50;99.90;;;;;;4962189;28;20529;-84
2022/06/13 00:50:08;;;;;;;1.10;0.90;;;15.60;99.90;;;;;;4963117;28;20595;-84
2022/06/13 00:52:43;;;;;;;0.80;0.60;;;15.50;99.90;;;;;;4964027;28;20454;-86
2022/06/13 00:55:12;;;;;;;0.87;0.70;;;15.50;99.90;;;;;;4963473;28;20470;-83
2022/06/13 00:57:40;;;;;;;1.10;1.00;;;15.40;99.90;;;;;;4959456;28;21065;-84
2022/06/13 01:00:12;;;;;;;0.93;0.70;;;15.30;99.90;;;;;;4962254;28;21098;-85
2022/06/13 01:02:41;;;;;;;1.03;0.80;;;15.20;99.90;;;;;;4960296;28;20997;-83
2022/06/13 01:05:09;;;;;;;0.60;0.60;;;15.00;99.90;;;;;;4961106;28;20483;-84
2022/06/13 01:07:37;;;;;;;1.07;0.80;;;15.00;99.90;;;;;;4962650;28;20525;-84
2022/06/13 01:12:55;;;;;;;1.10;0.57;;;15.00;99.90;;;;;;4962864;28;20959;-85
2022/06/13 01:15:42;;;;;;;0.70;0.60;;;15.00;99.90;;;;;;4965234;28;20484;-83
2022/06/13 01:18:24;;;;;;;0.63;0.60;;;15.00;99.90;;;;;;4959259;28;20891;-83
2022/06/13 01:21:03;;;;;;;0.93;0.93;;;15.10;99.90;;;;;;4961376;28;20515;-86
2022/06/13 01:24:04;;;;;;;0.60;0.57;;;15.00;99.90;;;;;;4962634;28;20886;-83
2022/06/13 01:27:01;;;;;;;0.70;0.60;;;15.00;99.90;;;;;;4962346;28;21260;-84
2022/06/13 01:30:06;;;;;;;1.07;0.97;;;14.90;99.90;;;;;;4964154;28;20471;-84
2022/06/13 01:33:01;;;;;;;1.87;0.93;;;14.90;99.90;;;;;;4961328;28;20479;-83
2022/06/13 01:35:42;;;;;;;1.50;0.70;;;14.80;99.90;;;;;;4967651;28;20470;-83
2022/06/13 01:38:24;;;;;;;0.87;0.87;;;14.90;99.90;;;;;;4962785;28;20488;-83
2022/06/13 01:41:03;;;;;;;0.70;0.70;;;14.80;99.90;;;;;;4960332;28;20500;-83
2022/06/13 01:43:47;;;;;;;0.70;0.70;;;14.70;99.90;;;;;;4962879;28;20877;-85
2022/06/13 01:46:22;;;;;;;1.40;0.70;;;14.90;99.90;;;;;;4963446;28;20501;-83
2022/06/13 01:49:05;;;;;;;0.87;0.60;;;14.90;99.90;;;;;;4962350;28;20462;-84
2022/06/13 01:51:39;;;;;;;0.90;0.80;;;15.00;99.90;;;;;;4961658;28;20471;-85
2022/06/13 01:54:20;;;;;;;0.73;0.60;;;14.90;99.90;;;;;;4961252;28;20480;-83
2022/06/13 01:56:54;;;;;;;0.50;0.40;;;15.00;99.90;;;;;;4960841;28;20573;-84
2022/06/13 01:59:27;;;;;;;1.00;0.70;;;15.00;99.90;;;;;;4962675;28;20486;-83
2022/06/13 02:01:59;;;;;;;0.90;0.60;;;15.00;99.90;;;;;;4958288;28;20583;-83
2022/06/13 02:04:34;;;;;;;1.33;0.60;;;15.00;99.90;;;;;;4963403;28;20923;-86
2022/06/13 02:07:05;;;;;;;0.70;0.70;;;15.10;99.90;;;;;;4962203;28;21193;-83
2022/06/13 02:09:38;;;;;;;0.70;0.63;;;15.10;99.90;;;;;;4963424;28;20475;-83
2022/06/13 02:12:06;;;;;;;2.80;0.70;;;14.90;99.90;;;;;;4960854;28;20486;-85
2022/06/13 02:14:36;;;;;;;1.00;0.90;;;15.00;99.90;;;;;;4963353;28;20552;-83
2022/06/13 02:17:08;;;;;;;1.00;0.60;;;15.00;99.90;;;;;;4959017;28;20475;-84
2022/06/13 02:19:43;;;;;;;0.50;0.50;;;15.00;99.90;;;;;;4959856;28;20496;-85
2022/06/13 02:22:12;;;;;;;0.80;0.70;;;15.10;99.90;;;;;;4960138;28;20744;-84
2022/06/13 02:24:48;;;;;;;1.27;0.77;;;15.00;99.90;;;;;;4959708;28;20482;-86
2022/06/13 02:27:18;;;;;;;0.83;0.70;;;15.00;99.90;;;;;;4961993;28;20575;-84
2022/06/13 02:29:49;;;;;;;0.80;0.80;;;15.00;99.90;;;;;;4961987;28;20448;-84
2022/06/13 02:32:20;;;;;;;0.70;0.70;;;15.10;99.90;;;;;;4961858;28;20554;-84
2022/06/13 02:34:53;;;;;;;3.17;0.93;;;15.20;99.90;;;;;;4960973;28;20521;-86
2022/06/13 02:37:27;;;;;;;0.60;0.60;;;15.20;99.90;;;;;;4962616;28;20521;-84
2022/06/13 02:40:02;;;;;;;0.70;0.70;;;15.10;99.90;;;;;;4964252;28;20468;-84
2022/06/13 02:42:34;;;;;;;0.60;0.60;;;15.10;99.90;;;;;;4971721;28;20954;-83
2022/06/13 02:45:04;;;;;;;0.60;0.60;;;15.00;99.90;;;;;;4971143;28;20972;-83
2022/06/13 02:47:38;;;;;;;0.80;0.80;;;14.80;99.90;;;;;;4967060;28;21233;-83
2022/06/13 02:50:11;;;;;;;0.60;0.57;;;14.70;99.90;;;;;;4965371;28;20456;-84
2022/06/13 02:52:43;;;;;;;1.10;0.70;;;14.60;99.90;;;;;;4966105;28;20452;-84
2022/06/13 02:55:13;;;;;;;0.70;0.60;;;14.60;99.90;;;;;;4961967;28;21025;-84
2022/06/13 02:58:00;;;;;;;1.30;1.00;;;14.60;99.90;;;;;;4964086;28;20566;-83
2022/06/13 03:00:41;;;;;;;1.03;0.97;;;14.70;99.90;;;;;;4957960;28;20469;-86
2022/06/13 03:03:15;;;;;;;0.60;0.60;;;14.90;99.90;;;;;;4959395;28;20499;-86
2022/06/13 03:05:58;;;;;;;0.60;0.60;;;14.70;99.90;;;;;;4960638;28;20649;-83
2022/06/13 03:08:49;;;;;;;3.77;0.90;;;14.60;99.90;;;;;;4961188;28;20466;-82
2022/06/13 03:11:30;;;;;;;1.07;0.97;;;14.60;99.90;;;;;;4961930;28;20986;-83
2022/06/13 03:14:08;;;;;;;1.10;0.70;;;14.50;99.90;;;;;;4959426;28;20533;-84
2022/06/13 03:16:40;;;;;;;0.60;0.60;;;14.40;99.90;;;;;;4959826;28;20471;-83
2022/06/13 03:19:13;;;;;;;1.20;0.90;;;14.60;99.90;;;;;;4959420;28;20502;-85
2022/06/13 03:21:46;;;;;;;0.80;0.70;;;14.70;99.90;;;;;;4961444;28;20492;-85
2022/06/13 03:24:18;;;;;;;1.20;1.10;;;14.80;99.90;;;;;;4961712;28;21041;-85
2022/06/13 03:26:52;;;;;;;1.60;1.30;;;14.90;99.90;;;;;;4960547;28;20961;-85
2022/06/13 03:29:26;;;;;;;0.80;0.80;;;15.00;99.90;;;;;;4959318;28;20475;-84
2022/06/13 03:31:57;;;;;;;0.87;0.77;;;15.00;99.90;;;;;;4960459;28;20875;-86
2022/06/13 03:34:29;;;;;;;1.30;1.13;;;15.10;99.90;;;;;;4963056;28;20449;-83
2022/06/13 03:37:03;;;;;;;3.57;1.10;;;15.30;99.90;;;;;;4964215;28;20515;-84
2022/06/13 03:39:35;;;;;;;1.17;0.80;;;15.30;99.90;;;;;;4964473;28;20506;-84
2022/06/13 03:42:08;;;;;;;0.73;0.70;;;15.40;99.90;;;;;;4960883;28;20495;-84
2022/06/13 03:44:39;;;;;;;0.70;0.60;;;15.40;99.90;;;;;;4963706;28;20493;-84
2022/06/13 03:47:12;;;;;;;1.27;1.17;;;15.40;99.90;;;;;;4962210;28;20526;-84
2022/06/13 03:49:44;;;;;;;0.90;0.80;;;15.40;99.90;;;;;;4961859;28;20490;-87
2022/06/13 03:52:15;;;;;;;3.13;1.00;;;15.50;99.90;;;;;;4963732;28;20472;-84
2022/06/13 03:54:49;;;;;;;1.53;1.00;;;15.60;99.90;;;;;;4964017;28;20467;-84
2022/06/13 03:57:21;;;;;;;1.20;1.10;;;15.60;99.90;;;;;;4961953;28;21443;-85
2022/06/13 03:59:53;;;;;;;0.87;0.87;;;15.70;99.90;;;;;;4963632;28;20978;-84
2022/06/13 04:02:26;;;;;;;1.20;1.10;;;15.70;99.90;;;;;;4958942;28;20523;-86
2022/06/13 04:04:54;;;;;;;0.80;0.80;;;15.80;99.90;;;;;;4963213;28;20470;-84
2022/06/13 04:07:25;;;;;;;1.33;1.23;;;15.80;99.90;;;;;;4962277;28;20463;-84
2022/06/13 04:09:55;;;;;;;0.70;0.60;;;15.90;99.90;;;;;;4961440;28;20475;-85
2022/06/13 04:12:55;;;;;;;1.10;1.03;;;15.80;99.90;;;;;;4962367;28;20995;-84
2022/06/13 04:15:49;;;;;;;1.07;1.03;;;15.80;99.90;;;;;;4958516;28;21017;-84
2022/06/13 04:18:24;;;;;;;1.20;1.10;;;15.80;99.90;;;;;;4963230;28;21029;-86
2022/06/13 04:20:57;;;;;;;0.90;0.90;;;15.70;99.90;;;;;;4962254;28;20451;-86
2022/06/13 04:23:32;;;;;;;1.43;0.90;;;15.70;99.90;;;;;;4963603;28;20548;-84
2022/06/13 04:26:08;;;;;;;1.17;0.80;;;15.70;99.90;;;;;;4963266;28;20570;-85
2022/06/13 04:28:43;;;;;;;1.60;1.50;;;15.60;99.90;;;;;;4964464;28;20504;-84
2022/06/13 04:31:12;;;;;;;0.80;0.80;;;15.70;99.90;;;;;;4962314;28;20477;-85
2022/06/13 04:33:43;;;;;;;0.93;0.87;;;15.70;99.90;;;;;;4962210;28;20466;-85
2022/06/13 04:36:13;;;;;;;0.90;0.90;;;15.60;99.90;;;;;;4962356;28;20482;-84
2022/06/13 04:38:47;;;;;;;1.80;1.33;;;15.70;99.90;;;;;;4964032;28;20513;-85
2022/06/13 04:41:15;;;;;;;1.50;1.10;;;15.70;99.90;;;;;;4962259;28;20471;-85
2022/06/13 04:43:45;;;;;;;1.03;1.03;;;15.80;99.90;;;;;;4961443;28;21266;-84
2022/06/13 04:46:17;;;;;;;1.17;1.17;;;15.80;99.90;;;;;;4964659;28;20467;-84
2022/06/13 04:48:48;;;;;;;0.77;0.77;;;15.80;99.90;;;;;;4964053;28;20475;-85
2022/06/13 04:51:19;;;;;;;1.33;1.23;;;15.90;99.90;;;;;;4964595;28;20518;-85
2022/06/13 04:53:54;;;;;;;1.23;0.93;;;15.90;99.90;;;;;;4964367;28;20529;-87
2022/06/13 04:56:22;;;;;;;0.93;0.83;;;15.90;99.90;;;;;;4961103;28;20931;-86
2022/06/13 04:58:52;;;;;;;1.20;0.80;;;15.90;99.90;;;;;;4946389;28;20975;-84
2022/06/13 05:01:24;;;;;;;1.30;1.20;;;15.80;99.90;;;;;;4941826;28;20463;-81
2022/06/13 05:03:53;;;;;;;1.53;0.90;;;15.70;99.90;;;;;;4942699;28;20952;-81
2022/06/13 05:06:28;;;;;;;1.77;0.90;;;15.70;99.90;;;;;;4943086;28;20480;-82
2022/06/13 05:09:01;;;;;;;1.47;1.37;;;15.60;99.90;;;;;;4942117;29;20467;-81
2022/06/13 05:11:31;;;;;;;2.53;1.43;;;15.60;99.90;;;;;;4944271;28;20471;-84
2022/06/13 05:14:02;;;;;;;1.33;0.90;;;15.60;99.90;;;;;;4940974;28;20469;-84
2022/06/13 05:16:44;;;;;;;1.00;0.90;;;15.60;99.90;;;;;;4940314;28;21245;-81
2022/06/13 05:19:41;;;;;;;1.13;0.93;;;15.50;99.90;;;;;;4940330;28;20480;-81
2022/06/13 05:22:21;;;;;;;1.40;1.30;;;15.60;99.90;;;;;;4940835;28;21110;-84
2022/06/13 05:25:19;;;;;;;1.70;1.60;;;15.80;99.90;;;;;;4946985;28;20473;-82
2022/06/13 05:27:46;;;;;;;1.30;1.20;;;15.90;99.90;;;;;;4944966;28;20532;-84
2022/06/13 05:30:15;;;;;;;0.93;0.83;;;16.10;99.90;;;;;;4942853;28;21200;-82
2022/06/13 05:32:43;;;;;;;1.40;1.07;;;16.20;99.90;;;;;;4942424;28;20554;-82
2022/06/13 05:35:14;;;;;;;0.77;0.77;;;16.10;99.90;;;;;;4944951;28;20468;-82
2022/06/13 05:37:41;;;;;;;1.80;0.93;;;16.00;99.90;;;;;;4943365;28;20519;-84
2022/06/13 05:40:16;;;;;;;0.87;0.83;;;15.90;99.90;;;;;;4958231;28;20476;-82
2022/06/13 05:42:43;;;;;;;1.13;1.03;;;15.80;99.90;;;;;;4961945;28;20513;-83
2022/06/13 05:45:13;;;;;;;1.43;1.33;;;15.90;99.90;;;;;;4946550;28;20505;-82
2022/06/13 05:47:41;;;;;;;1.17;1.10;;;16.00;99.90;;;;;;4947425;29;20472;-83
2022/06/13 05:50:13;;;;;;;1.57;1.47;;;16.00;99.90;;;;;;4940250;28;20491;-85
2022/06/13 05:52:41;;;;;;;1.37;1.23;;;16.20;99.90;;;;;;4943740;28;20483;-82
2022/06/13 05:55:10;;;;;;;1.23;1.20;;;16.30;99.90;;;;;;4940648;28;21190;-83
2022/06/13 05:57:38;;;;;;;2.13;1.43;;;16.50;99.90;;;;;;4951534;28;21015;-81
2022/06/13 06:00:13;;;;;;;1.63;1.43;;;16.60;99.90;;;;;;4957581;28;20968;-84
2022/06/13 06:02:42;;;;;;;1.77;1.67;;;16.70;99.90;;;;;;4959002;28;20490;-83
2022/06/13 06:05:10;;;;;;;1.27;1.17;;;16.90;99.90;;;;;;4957332;28;20476;-84
2022/06/13 06:07:38;;;;;;;2.00;1.90;;;16.90;99.90;;;;;;4955548;28;20470;-83
2022/06/13 06:10:06;;;;;;;1.90;1.13;;;17.10;99.90;;;;;;4958747;28;20542;-83
2022/06/13 06:12:34;;;;;;;2.90;0.90;;;17.30;99.90;;;;;;4958514;28;20460;-82
2022/06/13 06:15:01;;;;;;;1.23;0.90;;;17.40;99.90;;;;;;4964880;28;21215;-85
2022/06/13 06:17:29;;;;;;;1.23;1.13;;;17.60;99.90;;;;;;4950631;28;20477;-85
2022/06/13 06:19:56;;;;;;;0.80;0.80;;;18.00;99.90;;;;;;4953816;28;20564;-82
2022/06/13 06:22:23;;;;;;;1.50;1.40;;;18.10;99.90;;;;;;4956426;28;21062;-83
2022/06/13 06:24:50;;;;;;;1.13;1.03;;;18.10;99.90;;;;;;4954415;28;20578;-83
2022/06/13 06:27:17;;;;;;;2.53;1.20;;;18.20;99.90;;;;;;4953806;28;20465;-82
2022/06/13 06:29:46;;;;;;;1.40;1.30;;;18.40;99.90;;;;;;4955605;28;21090;-82
2022/06/13 06:32:13;;;;;;;1.10;1.00;;;18.80;99.90;;;;;;4960588;28;20581;-83
2022/06/13 06:34:41;;;;;;;1.40;1.10;;;18.70;99.90;;;;;;4955414;28;20472;-85
2022/06/13 06:37:08;;;;;;;0.90;0.90;;;18.70;99.90;;;;;;4952986;28;20561;-83
2022/06/13 06:39:35;;;;;;;1.20;1.00;;;18.60;99.90;;;;;;4963076;28;20510;-83
2022/06/13 06:42:06;;;;;;;1.00;0.90;;;18.60;99.90;;;;;;4953829;28;20489;-85
2022/06/13 06:44:33;;;;;;;2.73;1.60;;;18.70;99.90;;;;;;4953187;28;20468;-82
2022/06/13 06:47:02;;;;;;;2.40;0.90;;;18.80;99.90;;;;;;4955286;28;20464;-88
2022/06/13 06:49:34;;;;;;;0.80;0.70;;;18.90;99.90;;;;;;4951490;28;20697;-86
2022/06/13 06:52:01;;;;;;;0.80;0.80;;;19.00;99.90;;;;;;4958295;28;20478;-85
2022/06/13 06:59:58;;;;;;;1.57;1.00;;;18.80;99.90;;;;;;4960163;28;20456;-85
2022/06/13 07:02:29;;;;;;;0.50;0.50;;;19.10;99.90;;;;;;4955527;28;20484;-85
2022/06/13 07:05:00;;;;;;;1.10;0.87;;;19.50;99.90;;;;;;4957105;28;20475;-86
2022/06/13 07:07:27;;;;;;;0.90;0.90;;;19.80;99.90;;;;;;4957063;28;21114;-85
2022/06/13 07:09:54;;;;;;;0.70;0.70;;;19.90;99.90;;;;;;4953512;28;20468;-85
2022/06/13 07:12:21;;;;;;;1.70;1.10;;;19.70;99.90;;;;;;4960082;28;21113;-85
2022/06/13 07:14:48;;;;;;;1.50;0.70;;;20.00;99.90;;;;;;4957854;28;20553;-85
2022/06/13 07:17:16;;;;;;;0.60;0.50;;;20.30;99.90;;;;;;4957102;28;20476;-85
2022/06/13 07:19:45;;;;;;;0.87;0.60;;;20.40;99.90;;;;;;4959425;28;20471;-85
2022/06/13 07:22:16;;;;;;;0.90;0.80;;;20.70;99.90;;;;;;4957081;28;20481;-85
2022/06/13 07:24:44;;;;;;;0.97;0.60;;;21.10;99.90;;;;;;4957083;28;20472;-85
2022/06/13 07:27:12;;;;;;;2.00;0.50;;;21.20;99.90;;;;;;4951165;28;20472;-86
2022/06/13 07:29:39;;;;;;;1.00;0.60;;;21.20;99.90;;;;;;4958279;28;20472;-86
2022/06/13 07:32:09;;;;;;;0.50;0.50;;;21.40;99.90;;;;;;4956622;28;20471;-87
2022/06/13 07:34:37;;;;;;;0.50;0.50;;;21.70;99.90;;;;;;4959759;28;20453;-86
2022/06/13 07:37:08;;;;;;;0.80;0.50;;;22.00;99.90;;;;;;4961106;28;20479;-85
2022/06/13 07:39:35;;;;;;;0.70;0.50;;;22.00;99.90;;;;;;4958403;28;20475;-84
2022/06/13 07:42:03;;;;;;;0.80;0.60;;;22.00;99.90;;;;;;4962785;28;20457;-85
2022/06/13 07:44:36;;;;;;;0.77;0.60;;;21.80;99.90;;;;;;4962378;28;20573;-86
2022/06/13 07:47:04;;;;;;;0.60;0.50;;;21.70;99.90;;;;;;4957418;28;20977;-86
2022/06/13 07:49:31;;;;;;;0.60;0.50;;;21.90;99.90;;;;;;4953800;28;20460;-85
2022/06/13 07:51:58;;;;;;;0.87;0.53;;;22.00;99.90;;;;;;4951900;28;20507;-84
2022/06/13 07:54:26;;;;;;;0.50;0.40;;;21.90;99.90;;;;;;4957004;28;20452;-85
2022/06/13 07:56:53;;;;;;;1.80;1.30;;;22.00;99.90;;;;;;4953693;28;20850;-84
2022/06/13 07:59:26;;;;;;;0.60;0.50;;;22.10;99.90;;;;;;4956117;28;20468;-85
2022/06/13 08:01:53;;;;;;;0.60;0.40;;;22.20;99.90;;;;;;4953412;28;20476;-85
2022/06/13 08:04:19;;;;;;;0.83;0.83;;;22.60;99.90;;;;;;4951746;28;21278;-85
2022/06/13 08:06:46;;;;;;;5.43;0.60;;;22.80;99.60;;;;;;4955200;28;20947;-85
2022/06/13 08:09:13;;;;;;;0.60;0.50;;;22.50;99.60;;;;;;4958792;28;20502;-85
2022/06/13 08:11:46;;;;;;;1.10;0.70;;;22.80;99.90;;;;;;4955960;28;20673;-86
2022/06/13 08:14:13;;;;;;;0.87;0.87;;;22.30;99.90;;;;;;4967169;28;20573;-86
2022/06/13 08:16:41;;;;;;;1.10;1.00;;;22.60;99.10;;;;;;4959073;28;20468;-85
2022/06/13 08:19:08;;;;;;;0.60;0.50;;;22.70;99.00;;;;;;4955444;28;20485;-85
2022/06/13 08:21:37;;;;;;;0.60;0.60;;;22.70;99.90;;;;;;4958485;28;20511;-85
2022/06/13 08:24:04;;;;;;;1.17;1.00;;;23.30;99.90;;;;;;4960928;28;20583;-85
2022/06/13 08:26:32;;;;;;;1.30;1.20;;;23.70;99.90;;;;;;4962622;28;20510;-85
2022/06/13 08:29:00;;;;;;;0.70;0.67;;;23.60;99.40;;;;;;4960190;28;21070;-86
2022/06/13 08:31:27;;;;;;;0.60;0.60;;;23.30;99.00;;;;;;4961831;28;20528;-85
2022/06/13 08:33:55;;;;;;;0.90;0.90;;;23.10;98.00;;;;;;4957929;28;21061;-89
2022/06/13 08:36:22;;;;;;;0.73;0.63;;;23.60;99.80;;;;;;4952722;28;21037;-85
2022/06/13 08:38:49;;;;;;;0.60;0.60;;;23.60;97.10;;;;;;4980296;28;20632;-87
2022/06/13 08:41:25;;;;;;;0.97;0.60;;;23.40;97.70;;;;;;4974496;28;20628;-86
2022/06/13 08:44:21;;;;;;;0.80;0.80;;;23.30;99.20;;;;;;4973710;28;20517;-87
2022/06/13 08:47:02;;;;;;;0.70;0.60;;;23.30;99.20;;;;;;4954788;28;20547;-86
2022/06/13 08:49:36;;;;;;;0.50;0.50;;;23.10;97.90;;;;;;4960218;28;20457;-87
2022/06/13 08:52:26;;;;;;;1.50;0.70;;;22.80;98.90;;;;;;4956209;28;20821;-87
2022/06/13 08:55:00;;;;;;;0.50;0.50;;;22.70;99.70;;;;;;4953275;28;20472;-85
2022/06/13 08:57:30;;;;;;;0.60;0.57;;;22.80;99.60;;;;;;4962117;28;20495;-86
2022/06/13 09:00:05;;;;;;;0.70;0.70;;;23.30;99.00;;;;;;4966108;28;20530;-86
2022/06/13 09:02:41;;;;;;;0.63;0.50;;;23.40;98.20;;;;;;4954139;28;20456;-87
2022/06/13 09:05:11;;;;;;;0.80;0.80;;;23.50;97.90;;;;;;4954163;28;20464;-86
2022/06/13 09:07:43;;;;;;;0.60;0.60;;;23.40;97.20;;;;;;4959208;28;20493;-87
2022/06/13 09:10:17;;;;;;;1.07;0.43;;;23.60;95.90;;;;;;4963999;28;20473;-86
2022/06/13 09:12:52;;;;;;;0.73;0.60;;;23.70;97.20;;;;;;4964917;28;20541;-84
2022/06/13 09:15:21;;;;;;;1.43;0.70;;;24.20;98.20;;;;;;4963006;28;20507;-87
2022/06/13 09:17:53;;;;;;;0.67;0.57;;;23.80;97.70;;;;;;4967626;28;20475;-84
2022/06/13 09:20:27;;;;;;;0.93;0.70;;;23.90;95.20;;;;;;4964920;28;20468;-84
2022/06/13 09:23:00;;;;;;;0.70;0.60;;;23.90;97.00;;;;;;4958000;28;20452;-85
2022/06/13 09:25:36;;;;;;;2.43;0.80;;;23.80;96.60;;;;;;4959667;28;21248;-85
2022/06/13 09:28:11;;;;;;;0.50;0.50;;;24.00;96.10;;;;;;4953804;28;20493;-85
2022/06/13 09:30:45;;;;;;;0.70;0.60;;;24.70;97.20;;;;;;4952069;28;20894;-83
2022/06/13 09:33:21;;;;;;;3.10;2.10;;;24.30;94.60;;;;;;4955318;28;20469;-84
2022/06/13 09:35:53;;;;;;;4.10;2.20;;;23.40;96.50;;;;;;4950794;28;20468;-85
2022/06/13 09:38:23;;;;;;;3.70;1.87;;;23.70;97.20;;;;;;4955187;28;20502;-83
2022/06/13 09:41:04;;;;;;;3.73;1.20;;;23.90;97.90;;;;;;4955975;28;20483;-84
2022/06/13 09:43:44;;;;;;;1.20;0.83;;;23.80;97.00;;;;;;4967728;28;20521;-83
2022/06/13 09:46:17;;;;;;;1.47;1.10;;;23.30;96.40;;;;;;4958221;28;20513;-84
2022/06/13 09:49:00;;;;;;;0.90;0.80;;;23.20;97.50;;;;;;4956775;28;20544;-85
2022/06/13 09:51:39;;;;;;;2.03;0.87;;;22.90;97.80;;;;;;4964057;28;20506;-84
2022/06/13 09:54:15;;;;;;;0.80;0.63;;;22.90;98.50;;;;;;4948468;28;20472;-85
2022/06/13 09:56:51;;;;;;;2.20;1.17;;;22.80;99.10;;;;;;4956404;28;20464;-85
2022/06/13 09:59:32;;;;;;;0.60;0.50;;;22.30;99.90;;;;;;4955553;28;20461;-85
2022/06/13 10:02:04;;;;;;;0.50;0.40;;;21.80;99.90;;;;;;4954240;28;20469;-85
2022/06/13 10:04:40;;;;;;;1.50;0.70;;;21.30;99.90;;;;;;4960017;28;20480;-86
2022/06/13 10:07:14;;;;;;;1.47;0.70;;;21.00;99.90;;;;;;4956014;28;20457;-86
2022/06/13 10:09:53;;;;;;;1.37;0.70;;;20.90;99.90;;;;;;4955601;28;20472;-85
2022/06/13 10:12:33;;;;;;;2.67;0.50;;;21.00;99.90;;;;;;4959235;28;20468;-85
2022/06/13 10:15:12;;;;;;;1.57;0.67;;;21.50;99.90;;;;;;4960243;28;21299;-85
2022/06/13 10:17:53;;;;;;;0.70;0.50;;;22.00;99.90;;;;;;4959497;28;20457;-84
2022/06/13 10:20:32;;;;;;;0.53;0.50;;;22.40;99.90;;;;;;4951225;28;20468;-84
2022/06/13 10:23:07;;;;;;;2.20;0.50;;;23.40;99.90;;;;;;4954695;28;20457;-85
2022/06/13 10:25:48;;;;;;;1.57;0.50;;;23.30;97.60;;;;;;4957208;28;20469;-84
2022/06/13 10:28:48;;;;;;;1.37;0.97;;;23.60;98.70;;;;;;4955456;28;20835;-87
2022/06/13 10:31:24;;;;;;;0.80;0.50;;;24.10;97.10;;;;;;4951444;28;20468;-87
2022/06/13 10:34:02;;;;;;;0.57;0.53;;;24.20;97.50;;;;;;4956339;28;20475;-85
2022/06/13 10:36:39;;;;;;;1.83;0.50;;;23.90;97.90;;;;;;4954795;28;20471;-86
2022/06/13 10:39:08;;;;;;;0.57;0.50;;;23.50;96.80;;;;;;4954561;28;20961;-84
2022/06/13 10:41:38;;;;;;;0.57;0.57;;;23.20;98.50;;;;;;4960191;28;20460;-86
2022/06/13 10:44:09;;;;;;;0.80;0.60;;;22.90;97.80;;;;;;4957725;28;20593;-85
2022/06/13 10:46:36;;;;;;;1.23;0.70;;;23.50;98.60;;;;;;4960540;28;21025;-86
2022/06/13 10:49:10;;;;;;;0.50;0.40;;;23.70;96.80;;;;;;4959148;28;20525;-85
2022/06/13 10:51:41;;;;;;;1.63;0.50;;;23.80;97.20;;;;;;4955597;28;20521;-85
2022/06/13 10:54:12;;;;;;;0.50;0.40;;;24.10;97.50;;;;;;4953439;28;21265;-85
2022/06/13 10:56:44;;;;;;;1.03;0.40;;;24.10;96.70;;;;;;4954728;28;20534;-86
2022/06/13 10:59:23;;;;;;;0.97;0.40;;;23.50;96.10;;;;;;4956298;28;20517;-85
2022/06/13 11:01:56;;;;;;;0.53;0.50;;;22.90;96.90;;;;;;4958431;28;20493;-86
2022/06/13 11:04:24;;;;;;;0.60;0.60;;;22.60;97.70;;;;;;4958429;28;20488;-85
2022/06/13 11:06:54;;;;;;;0.87;0.50;;;22.50;97.70;;;;;;4953916;28;20472;-86
2022/06/13 11:09:24;;;;;;;0.70;0.43;;;22.80;97.10;;;;;;4961620;28;20472;-85
2022/06/13 11:11:56;;;;;;;0.50;0.50;;;23.70;96.80;;;;;;4957767;28;20482;-87
2022/06/13 11:14:36;;;;;;;0.50;0.50;;;24.20;95.90;;;;;;4949810;28;20543;-86
2022/06/13 11:22:41;;;;;;;0.70;0.47;;;23.70;97.50;;;;;;4956755;28;20895;-86
2022/06/13 11:25:22;;;;;;;1.13;0.60;;;23.30;96.30;;;;;;4957973;28;20523;-86
2022/06/13 11:28:01;;;;;;;0.57;0.50;;;23.70;96.80;;;;;;4959228;28;20472;-86
2022/06/13 11:30:44;;;;;;;0.70;0.50;;;23.90;95.80;;;;;;4956337;28;20491;-86
2022/06/13 11:33:24;;;;;;;1.37;0.50;;;23.40;95.30;;;;;;4958374;28;20477;-86
2022/06/13 11:35:54;;;;;;;0.70;0.53;;;23.20;97.00;;;;;;4977436;28;20480;-87
2022/06/13 11:38:24;;;;;;;1.60;0.60;;;23.20;97.00;;;;;;4982176;28;21240;-86
2022/06/13 11:41:17;;;;;;;0.70;0.60;;;23.50;97.60;;;;;;4976133;28;20470;-86
2022/06/13 11:43:48;;;;;;;0.50;0.50;;;24.00;97.80;;;;;;4978029;28;20507;-86
2022/06/13 11:46:39;;;;;;;0.60;0.50;;;23.60;96.30;;;;;;4955631;28;20472;-86
2022/06/13 11:49:24;;;;;;;1.10;0.57;;;24.20;96.70;;;;;;4961974;28;20549;-86
2022/06/13 11:51:56;;;;;;;0.60;0.57;;;24.40;94.50;;;;;;4960419;28;20878;-84
2022/06/13 11:54:28;;;;;;;0.73;0.60;;;24.60;96.70;;;;;;4963929;28;20460;-85
2022/06/13 11:57:40;;;;;;;2.63;0.67;;;24.40;95.40;;;;;;4964419;28;20538;-85
2022/06/13 12:00:12;;;;;;;0.70;0.50;;;24.20;96.10;;;;;;4974474;28;20479;-86
2022/06/13 12:02:54;;;;;;;0.50;0.50;;;23.70;97.20;;;;;;4965868;28;20576;-85
2022/06/13 12:05:28;;;;;;;0.50;0.50;;;23.30;97.90;;;;;;4962473;28;20553;-85
2022/06/13 12:07:59;;;;;;;0.50;0.50;;;22.70;97.50;;;;;;4960183;28;20472;-87
2022/06/13 12:10:30;;;;;;;0.70;0.70;;;22.20;98.90;;;;;;4964169;28;20560;-88
2022/06/13 12:12:58;;;;;;;0.53;0.43;;;22.00;99.10;;;;;;4966418;28;20456;-89
2022/06/13 12:15:35;;;;;;;0.77;0.77;;;21.80;99.10;;;;;;4959755;28;20503;-89
2022/06/13 12:18:09;;;;;;;3.30;0.90;;;21.50;99.90;;;;;;4956137;28;20463;-92
2022/06/13 12:20:47;;;;;;;1.07;0.60;;;20.90;99.90;;;;;;4964265;28;21322;-90
2022/06/13 12:23:25;;;;;;;1.10;0.90;;;20.80;99.90;;;;;;4962255;28;20464;-90
2022/06/13 12:25:59;;;;;;;1.20;0.70;;;20.30;99.90;;;;;;4965788;28;20582;-90
2022/06/13 12:28:33;;;;;;;0.97;0.70;;;20.30;99.90;;;;;;4965133;28;20542;-90
2022/06/13 12:31:07;;;;;;;0.80;0.80;;;20.40;99.90;;;;;;4961754;28;21239;-91
2022/06/13 12:33:50;;;;;;;1.33;1.23;;;20.80;99.90;;;;;;4959575;28;21094;-90
2022/06/13 12:36:34;;;;;;;0.70;0.70;;;21.40;99.90;;;;;;4963372;28;20477;-90
2022/06/13 12:39:16;;;;;;;0.87;0.63;;;21.00;99.90;;;;;;4958864;28;20847;-90
2022/06/13 12:41:53;;;;;;;0.70;0.70;;;20.80;99.90;;;;;;4960987;28;20525;-90
2022/06/13 12:44:34;;;;;;;0.83;0.70;;;20.40;99.90;;;;;;4958384;28;20573;-91
2022/06/13 12:47:18;;;;;;;0.70;0.70;;;20.20;99.90;;;;;;4957764;28;20875;-90
2022/06/13 12:50:15;;;;;;;0.60;0.60;;;20.30;99.90;;;;;;4956627;28;21205;-90
2022/06/13 12:52:54;;;;;;;0.87;0.70;;;20.70;99.90;;;;;;4963081;28;20517;-90
2022/06/13 12:55:39;;;;;;;0.67;0.67;;;21.30;99.90;;;;;;4961813;28;20530;-88
2022/06/13 12:58:28;;;;;;;0.60;0.60;;;21.40;99.90;;;;;;4959680;28;20492;-89
2022/06/13 13:01:02;;;;;;;1.70;0.70;;;21.70;99.90;;;;;;4956182;28;21002;-87
2022/06/13 13:03:57;;;;;;;0.77;0.77;;;22.00;99.90;;;;;;4951371;28;20533;-88
2022/06/13 13:06:37;;;;;;;0.80;0.60;;;22.60;99.90;;;;;;4975356;28;20456;-87
2022/06/13 13:09:20;;;;;;;1.73;0.60;;;22.90;99.90;;;;;;4959784;28;20525;-87
2022/06/13 13:12:02;;;;;;;5.23;0.60;;;22.80;99.90;;;;;;4963197;28;20957;-87
2022/06/13 13:14:42;;;;;;;0.63;0.63;;;22.30;99.90;;;;;;4959984;28;20476;-90
2022/06/13 13:17:24;;;;;;;0.70;0.70;;;22.70;99.90;;;;;;4952926;28;20473;-87
2022/06/13 13:19:59;;;;;;;0.70;0.70;;;23.20;99.90;;;;;;4956463;28;21108;-87
2022/06/13 13:22:34;;;;;;;0.97;0.97;;;23.40;99.90;;;;;;4957587;28;20464;-88
2022/06/13 13:25:16;;;;;;;2.40;0.97;;;23.10;99.90;;;;;;4962853;28;20567;-88
2022/06/13 13:27:52;;;;;;;1.00;0.90;;;22.50;99.90;;;;;;4961875;28;21055;-86
2022/06/13 13:30:26;;;;;;;2.20;0.80;;;22.10;99.90;;;;;;4957794;28;21151;-86
2022/06/13 13:33:14;;;;;;;1.70;0.60;;;22.60;99.90;;;;;;4959111;28;20649;-88
2022/06/13 13:35:47;;;;;;;0.80;0.70;;;23.30;99.90;;;;;;4958108;28;20465;-86